sensor_id;sensor_type;location;lat;lon;timestamp;P1;durP1;ratioP1;P2;durP2;ratioP2
7983;SDS011;4037;47.980;10.172;2023-07-29T07:55:27;3.73;;;2.80;;
7983;SDS011;4037;47.980;10.172;2023-07-29T07:57:53;4.17;;;2.93;;
7983;SDS011;4037;47.980;10.172;2023-07-29T08:00:20;3.40;;;2.70;;
7983;SDS011;4037;47.980;10.172;2023-07-29T08:02:46;5.77;;;2.83;;
7983;SDS011;4037;47.980;10.172;2023-07-29T08:05:12;3.70;;;2.80;;
7983;SDS011;4037;47.980;10.172;2023-07-29T08:07:38;3.50;;;2.77;;
7983;SDS011;4037;47.980;10.172;2023-07-29T08:10:04;4.83;;;3.27;;
7983;SDS011;4037;47.980;10.172;2023-07-29T08:12:31;4.90;;;3.43;;
7983;SDS011;4037;47.980;10.172;2023-07-29T08:14:57;3.53;;;2.47;;
7983;SDS011;4037;47.980;10.172;2023-07-29T08:17:23;4.27;;;2.40;;
7983;SDS011;4037;47.980;10.172;2023-07-29T08:19:49;5.07;;;2.87;;
7983;SDS011;4037;47.980;10.172;2023-07-29T08:22:15;2.70;;;2.23;;
7983;SDS011;4037;47.980;10.172;2023-07-29T08:24:42;4.07;;;2.63;;
7983;SDS011;4037;47.980;10.172;2023-07-29T08:27:08;3.97;;;2.90;;
7983;SDS011;4037;47.980;10.172;2023-07-29T08:29:34;3.53;;;2.50;;
7983;SDS011;4037;47.980;10.172;2023-07-29T08:32:00;3.20;;;2.73;;
7983;SDS011;4037;47.980;10.172;2023-07-29T08:34:26;5.40;;;2.90;;
7983;SDS011;4037;47.980;10.172;2023-07-29T08:36:52;4.87;;;2.77;;
7983;SDS011;4037;47.980;10.172;2023-07-29T08:39:18;2.97;;;2.33;;
7983;SDS011;4037;47.980;10.172;2023-07-29T08:42:17;3.00;;;2.37;;
7983;SDS011;4037;47.980;10.172;2023-07-29T08:44:40;4.33;;;2.90;;
7983;SDS011;4037;47.980;10.172;2023-07-29T08:47:07;5.03;;;2.70;;
7983;SDS011;4037;47.980;10.172;2023-07-29T08:49:33;3.97;;;2.83;;
7983;SDS011;4037;47.980;10.172;2023-07-29T08:51:59;3.17;;;2.70;;
7983;SDS011;4037;47.980;10.172;2023-07-29T08:54:26;4.33;;;2.60;;
7983;SDS011;4037;47.980;10.172;2023-07-29T08:56:53;3.83;;;2.70;;
7983;SDS011;4037;47.980;10.172;2023-07-29T08:59:19;4.23;;;3.07;;
7983;SDS011;4037;47.980;10.172;2023-07-29T09:01:46;3.57;;;2.30;;
7983;SDS011;4037;47.980;10.172;2023-07-29T09:04:12;6.23;;;3.03;;
7983;SDS011;4037;47.980;10.172;2023-07-29T09:06:39;5.50;;;2.73;;
7983;SDS011;4037;47.980;10.172;2023-07-29T09:09:06;3.13;;;2.50;;
7983;SDS011;4037;47.980;10.172;2023-07-29T09:11:33;4.10;;;2.65;;
7983;SDS011;4037;47.980;10.172;2023-07-29T09:13:59;2.92;;;2.22;;
7983;SDS011;4037;47.980;10.172;2023-07-29T09:16:25;4.40;;;2.47;;
7983;SDS011;4037;47.980;10.172;2023-07-29T09:18:51;3.88;;;2.88;;
7983;SDS011;4037;47.980;10.172;2023-07-29T09:21:18;3.40;;;2.70;;
7983;SDS011;4037;47.980;10.172;2023-07-29T09:23:48;3.55;;;2.78;;
7983;SDS011;4037;47.980;10.172;2023-07-29T09:26:22;5.78;;;2.45;;
7983;SDS011;4037;47.980;10.172;2023-07-29T09:28:51;3.10;;;2.60;;
7983;SDS011;4037;47.980;10.172;2023-07-29T09:31:21;3.63;;;2.80;;
7983;SDS011;4037;47.980;10.172;2023-07-29T09:33:47;3.08;;;2.60;;
7983;SDS011;4037;47.980;10.172;2023-07-29T09:36:13;3.92;;;2.63;;
7983;SDS011;4037;47.980;10.172;2023-07-29T09:38:39;3.53;;;2.90;;
7983;SDS011;4037;47.980;10.172;2023-07-29T09:41:05;3.40;;;2.28;;
7983;SDS011;4037;47.980;10.172;2023-07-29T09:43:32;4.47;;;2.58;;
7983;SDS011;4037;47.980;10.172;2023-07-29T09:46:05;2.40;;;2.15;;
7983;SDS011;4037;47.980;10.172;2023-07-29T09:48:37;4.28;;;2.60;;
7983;SDS011;4037;47.980;10.172;2023-07-29T09:51:10;4.00;;;2.30;;
7983;SDS011;4037;47.980;10.172;2023-07-29T09:53:43;5.63;;;2.60;;
7983;SDS011;4037;47.980;10.172;2023-07-29T09:56:10;2.92;;;2.03;;
7983;SDS011;4037;47.980;10.172;2023-07-29T09:58:36;2.55;;;2.05;;
7983;SDS011;4037;47.980;10.172;2023-07-29T10:01:03;2.72;;;2.17;;
7983;SDS011;4037;47.980;10.172;2023-07-29T10:03:29;2.28;;;1.88;;
7983;SDS011;4037;47.980;10.172;2023-07-29T10:05:59;2.75;;;2.00;;
7983;SDS011;4037;47.980;10.172;2023-07-29T10:08:25;2.55;;;1.90;;
7983;SDS011;4037;47.980;10.172;2023-07-29T10:10:52;2.97;;;2.30;;
7983;SDS011;4037;47.980;10.172;2023-07-29T10:13:20;3.35;;;2.10;;
7983;SDS011;4037;47.980;10.172;2023-07-29T10:15:46;3.50;;;1.90;;
7983;SDS011;4037;47.980;10.172;2023-07-29T10:18:12;4.80;;;2.22;;
7983;SDS011;4037;47.980;10.172;2023-07-29T10:20:38;2.10;;;1.75;;
7983;SDS011;4037;47.980;10.172;2023-07-29T10:23:06;2.13;;;1.92;;
7983;SDS011;4037;47.980;10.172;2023-07-29T10:25:38;2.63;;;2.15;;
7983;SDS011;4037;47.980;10.172;2023-07-29T10:28:07;3.97;;;2.13;;
7983;SDS011;4037;47.980;10.172;2023-07-29T10:30:34;2.45;;;2.05;;
7983;SDS011;4037;47.980;10.172;2023-07-29T10:33:03;2.75;;;1.83;;
7983;SDS011;4037;47.980;10.172;2023-07-29T10:35:30;3.08;;;1.77;;
7983;SDS011;4037;47.980;10.172;2023-07-29T10:37:58;2.90;;;2.20;;
7983;SDS011;4037;47.980;10.172;2023-07-29T10:40:24;3.03;;;2.05;;
7983;SDS011;4037;47.980;10.172;2023-07-29T10:43:06;3.08;;;2.17;;
7983;SDS011;4037;47.980;10.172;2023-07-29T10:45:38;2.75;;;1.95;;
7983;SDS011;4037;47.980;10.172;2023-07-29T10:51:21;2.75;;;2.08;;
7983;SDS011;4037;47.980;10.172;2023-07-29T10:53:39;2.63;;;1.83;;
7983;SDS011;4037;47.980;10.172;2023-07-29T10:56:05;3.35;;;2.08;;
7983;SDS011;4037;47.980;10.172;2023-07-29T10:58:31;7.18;;;2.50;;
7983;SDS011;4037;47.980;10.172;2023-07-29T11:00:57;2.50;;;2.00;;
7983;SDS011;4037;47.980;10.172;2023-07-29T11:03:23;3.05;;;2.25;;
7983;SDS011;4037;47.980;10.172;2023-07-29T11:05:53;2.83;;;2.25;;
7983;SDS011;4037;47.980;10.172;2023-07-29T11:08:29;2.38;;;2.15;;
7983;SDS011;4037;47.980;10.172;2023-07-29T11:13:28;3.33;;;2.10;;
7983;SDS011;4037;47.980;10.172;2023-07-29T11:15:55;2.67;;;1.95;;
7983;SDS011;4037;47.980;10.172;2023-07-29T11:18:23;3.13;;;1.73;;
7983;SDS011;4037;47.980;10.172;2023-07-29T11:20:52;2.97;;;2.25;;
7983;SDS011;4037;47.980;10.172;2023-07-29T11:23:19;4.13;;;2.50;;
7983;SDS011;4037;47.980;10.172;2023-07-29T11:25:45;2.65;;;2.28;;
7983;SDS011;4037;47.980;10.172;2023-07-29T11:28:11;2.90;;;2.25;;
7983;SDS011;4037;47.980;10.172;2023-07-29T11:30:40;3.55;;;2.05;;
7983;SDS011;4037;47.980;10.172;2023-07-29T11:33:06;2.92;;;2.25;;
7983;SDS011;4037;47.980;10.172;2023-07-29T11:35:32;2.80;;;2.00;;
7983;SDS011;4037;47.980;10.172;2023-07-29T11:37:59;2.45;;;2.08;;
7983;SDS011;4037;47.980;10.172;2023-07-29T11:40:25;3.33;;;2.30;;
7983;SDS011;4037;47.980;10.172;2023-07-29T11:42:51;4.60;;;1.98;;
7983;SDS011;4037;47.980;10.172;2023-07-29T11:45:18;3.22;;;2.60;;
7983;SDS011;4037;47.980;10.172;2023-07-29T11:47:45;3.00;;;1.90;;
7983;SDS011;4037;47.980;10.172;2023-07-29T11:50:11;3.85;;;2.50;;
7983;SDS011;4037;47.980;10.172;2023-07-29T11:52:41;2.42;;;2.22;;
7983;SDS011;4037;47.980;10.172;2023-07-29T11:55:08;3.22;;;2.20;;
7983;SDS011;4037;47.980;10.172;2023-07-29T11:57:35;3.35;;;2.10;;
7983;SDS011;4037;47.980;10.172;2023-07-29T12:00:06;3.60;;;2.28;;
7983;SDS011;4037;47.980;10.172;2023-07-29T12:02:36;3.95;;;2.55;;
7983;SDS011;4037;47.980;10.172;2023-07-29T12:05:02;3.08;;;2.22;;
7983;SDS011;4037;47.980;10.172;2023-07-29T12:07:29;2.63;;;1.90;;
7983;SDS011;4037;47.980;10.172;2023-07-29T12:09:55;2.92;;;1.88;;
7983;SDS011;4037;47.980;10.172;2023-07-29T12:12:24;2.55;;;1.70;;
7983;SDS011;4037;47.980;10.172;2023-07-29T12:14:50;4.35;;;2.03;;
7983;SDS011;4037;47.980;10.172;2023-07-29T12:17:16;2.30;;;1.90;;
7983;SDS011;4037;47.980;10.172;2023-07-29T12:19:42;2.47;;;1.85;;
7983;SDS011;4037;47.980;10.172;2023-07-29T12:22:08;3.20;;;2.17;;
7983;SDS011;4037;47.980;10.172;2023-07-29T12:24:36;2.28;;;1.70;;
7983;SDS011;4037;47.980;10.172;2023-07-29T12:27:02;1.95;;;1.75;;
7983;SDS011;4037;47.980;10.172;2023-07-29T12:29:28;2.08;;;1.63;;
7983;SDS011;4037;47.980;10.172;2023-07-29T12:31:58;3.58;;;2.58;;
7983;SDS011;4037;47.980;10.172;2023-07-29T12:34:25;2.42;;;1.95;;
7983;SDS011;4037;47.980;10.172;2023-07-29T12:36:51;3.35;;;1.67;;
7983;SDS011;4037;47.980;10.172;2023-07-29T12:39:19;2.35;;;1.70;;
7983;SDS011;4037;47.980;10.172;2023-07-29T12:41:45;3.40;;;2.30;;
7983;SDS011;4037;47.980;10.172;2023-07-29T12:44:11;2.38;;;1.67;;
7983;SDS011;4037;47.980;10.172;2023-07-29T12:46:37;1.98;;;1.70;;
7983;SDS011;4037;47.980;10.172;2023-07-29T12:49:03;2.97;;;1.88;;
7983;SDS011;4037;47.980;10.172;2023-07-29T12:51:29;2.40;;;1.77;;
7983;SDS011;4037;47.980;10.172;2023-07-29T12:53:55;3.03;;;1.58;;
7983;SDS011;4037;47.980;10.172;2023-07-29T12:56:21;2.17;;;1.73;;
7983;SDS011;4037;47.980;10.172;2023-07-29T12:58:47;1.80;;;1.30;;
7983;SDS011;4037;47.980;10.172;2023-07-29T13:01:14;2.08;;;1.83;;
7983;SDS011;4037;47.980;10.172;2023-07-29T13:03:46;2.20;;;1.70;;
7983;SDS011;4037;47.980;10.172;2023-07-29T13:06:12;1.65;;;1.52;;
7983;SDS011;4037;47.980;10.172;2023-07-29T13:08:38;1.92;;;1.67;;
7983;SDS011;4037;47.980;10.172;2023-07-29T13:11:04;2.08;;;1.80;;
7983;SDS011;4037;47.980;10.172;2023-07-29T13:13:30;3.38;;;1.70;;
7983;SDS011;4037;47.980;10.172;2023-07-29T13:15:56;4.35;;;2.10;;
7983;SDS011;4037;47.980;10.172;2023-07-29T13:18:22;3.45;;;2.10;;
7983;SDS011;4037;47.980;10.172;2023-07-29T13:20:48;4.32;;;2.20;;
7983;SDS011;4037;47.980;10.172;2023-07-29T13:23:15;3.22;;;2.13;;
7983;SDS011;4037;47.980;10.172;2023-07-29T13:25:41;5.78;;;2.08;;
7983;SDS011;4037;47.980;10.172;2023-07-29T13:28:08;1.63;;;1.02;;
7983;SDS011;4037;47.980;10.172;2023-07-29T13:30:34;1.67;;;1.20;;
7983;SDS011;4037;47.980;10.172;2023-07-29T13:33:00;2.22;;;1.63;;
7983;SDS011;4037;47.980;10.172;2023-07-29T13:35:26;4.15;;;1.80;;
7983;SDS011;4037;47.980;10.172;2023-07-29T13:37:53;2.95;;;1.80;;
7983;SDS011;4037;47.980;10.172;2023-07-29T13:40:19;3.20;;;1.73;;
7983;SDS011;4037;47.980;10.172;2023-07-29T13:42:45;3.15;;;1.80;;
7983;SDS011;4037;47.980;10.172;2023-07-29T13:45:11;3.00;;;2.13;;
7983;SDS011;4037;47.980;10.172;2023-07-29T13:47:37;3.58;;;2.05;;
7983;SDS011;4037;47.980;10.172;2023-07-29T13:50:03;3.80;;;2.03;;
7983;SDS011;4037;47.980;10.172;2023-07-29T13:52:29;2.90;;;2.03;;
7983;SDS011;4037;47.980;10.172;2023-07-29T13:54:55;3.50;;;2.17;;
7983;SDS011;4037;47.980;10.172;2023-07-29T13:57:21;2.13;;;1.80;;
7983;SDS011;4037;47.980;10.172;2023-07-29T13:59:47;3.60;;;2.30;;
7983;SDS011;4037;47.980;10.172;2023-07-29T14:02:13;4.13;;;2.53;;
7983;SDS011;4037;47.980;10.172;2023-07-29T14:04:39;5.63;;;2.50;;
7983;SDS011;4037;47.980;10.172;2023-07-29T14:07:05;3.77;;;2.30;;
7983;SDS011;4037;47.980;10.172;2023-07-29T14:09:31;3.53;;;2.53;;
7983;SDS011;4037;47.980;10.172;2023-07-29T14:11:57;4.07;;;2.40;;
7983;SDS011;4037;47.980;10.172;2023-07-29T14:14:23;2.93;;;2.30;;
7983;SDS011;4037;47.980;10.172;2023-07-29T14:16:49;3.70;;;2.70;;
7983;SDS011;4037;47.980;10.172;2023-07-29T14:19:15;3.93;;;2.40;;
7983;SDS011;4037;47.980;10.172;2023-07-29T14:21:41;2.87;;;2.40;;
7983;SDS011;4037;47.980;10.172;2023-07-29T14:24:07;2.50;;;1.97;;
7983;SDS011;4037;47.980;10.172;2023-07-29T14:26:33;3.22;;;2.47;;
7983;SDS011;4037;47.980;10.172;2023-07-29T14:28:59;2.50;;;2.30;;
7983;SDS011;4037;47.980;10.172;2023-07-29T14:31:25;2.47;;;2.27;;
7983;SDS011;4037;47.980;10.172;2023-07-29T14:33:51;3.10;;;2.40;;
7983;SDS011;4037;47.980;10.172;2023-07-29T14:36:17;3.60;;;2.20;;
7983;SDS011;4037;47.980;10.172;2023-07-29T14:38:43;3.73;;;2.03;;
7983;SDS011;4037;47.980;10.172;2023-07-29T14:41:09;2.40;;;1.80;;
7983;SDS011;4037;47.980;10.172;2023-07-29T14:43:35;2.67;;;2.20;;
7983;SDS011;4037;47.980;10.172;2023-07-29T14:46:01;3.33;;;1.98;;
7983;SDS011;4037;47.980;10.172;2023-07-29T14:48:27;1.97;;;1.77;;
7983;SDS011;4037;47.980;10.172;2023-07-29T14:50:53;2.37;;;2.17;;
7983;SDS011;4037;47.980;10.172;2023-07-29T14:53:19;3.80;;;2.50;;
7983;SDS011;4037;47.980;10.172;2023-07-29T14:55:45;2.67;;;2.07;;
7983;SDS011;4037;47.980;10.172;2023-07-29T14:58:11;2.30;;;1.63;;
7983;SDS011;4037;47.980;10.172;2023-07-29T15:00:37;2.10;;;1.87;;
7983;SDS011;4037;47.980;10.172;2023-07-29T15:03:03;2.70;;;2.30;;
7983;SDS011;4037;47.980;10.172;2023-07-29T15:05:29;2.93;;;2.23;;
7983;SDS011;4037;47.980;10.172;2023-07-29T15:07:55;2.00;;;1.73;;
7983;SDS011;4037;47.980;10.172;2023-07-29T15:10:21;2.03;;;1.83;;
7983;SDS011;4037;47.980;10.172;2023-07-29T15:12:47;2.57;;;1.50;;
7983;SDS011;4037;47.980;10.172;2023-07-29T15:15:13;4.00;;;1.63;;
7983;SDS011;4037;47.980;10.172;2023-07-29T15:17:39;2.00;;;1.40;;
7983;SDS011;4037;47.980;10.172;2023-07-29T15:20:05;2.00;;;1.80;;
7983;SDS011;4037;47.980;10.172;2023-07-29T15:22:31;2.17;;;1.57;;
7983;SDS011;4037;47.980;10.172;2023-07-29T15:24:57;2.80;;;1.73;;
7983;SDS011;4037;47.980;10.172;2023-07-29T15:27:25;3.00;;;1.60;;
7983;SDS011;4037;47.980;10.172;2023-07-29T15:29:51;2.03;;;1.43;;
7983;SDS011;4037;47.980;10.172;2023-07-29T15:32:17;2.80;;;1.40;;
7983;SDS011;4037;47.980;10.172;2023-07-29T15:34:43;2.67;;;1.63;;
7983;SDS011;4037;47.980;10.172;2023-07-29T15:37:09;1.47;;;1.37;;
7983;SDS011;4037;47.980;10.172;2023-07-29T15:39:35;1.97;;;1.73;;
7983;SDS011;4037;47.980;10.172;2023-07-29T15:42:01;1.87;;;1.50;;
7983;SDS011;4037;47.980;10.172;2023-07-29T15:44:27;3.13;;;1.77;;
7983;SDS011;4037;47.980;10.172;2023-07-29T15:46:53;3.13;;;2.03;;
7983;SDS011;4037;47.980;10.172;2023-07-29T15:49:20;2.77;;;1.80;;
7983;SDS011;4037;47.980;10.172;2023-07-29T15:51:46;4.07;;;1.90;;
7983;SDS011;4037;47.980;10.172;2023-07-29T15:54:12;2.03;;;1.70;;
7983;SDS011;4037;47.980;10.172;2023-07-29T15:56:38;2.43;;;1.67;;
7983;SDS011;4037;47.980;10.172;2023-07-29T15:59:05;2.37;;;1.77;;
7983;SDS011;4037;47.980;10.172;2023-07-29T16:01:31;3.93;;;2.27;;
7983;SDS011;4037;47.980;10.172;2023-07-29T16:03:57;4.07;;;2.10;;
7983;SDS011;4037;47.980;10.172;2023-07-29T16:06:24;5.43;;;2.30;;
7983;SDS011;4037;47.980;10.172;2023-07-29T16:08:50;3.23;;;2.33;;
7983;SDS011;4037;47.980;10.172;2023-07-29T16:11:16;3.43;;;2.40;;
7983;SDS011;4037;47.980;10.172;2023-07-29T16:13:42;3.50;;;2.30;;
7983;SDS011;4037;47.980;10.172;2023-07-29T16:16:08;2.90;;;2.37;;
7983;SDS011;4037;47.980;10.172;2023-07-29T16:18:34;3.53;;;2.13;;
7983;SDS011;4037;47.980;10.172;2023-07-29T16:21:00;2.83;;;2.43;;
7983;SDS011;4037;47.980;10.172;2023-07-29T16:23:33;3.23;;;2.30;;
7983;SDS011;4037;47.980;10.172;2023-07-29T16:25:59;3.77;;;2.60;;
7983;SDS011;4037;47.980;10.172;2023-07-29T16:28:25;3.77;;;2.37;;
7983;SDS011;4037;47.980;10.172;2023-07-29T16:30:51;3.60;;;2.10;;
7983;SDS011;4037;47.980;10.172;2023-07-29T16:33:18;2.80;;;2.00;;
7983;SDS011;4037;47.980;10.172;2023-07-29T16:35:44;3.20;;;2.27;;
7983;SDS011;4037;47.980;10.172;2023-07-29T16:38:10;2.60;;;2.00;;
7983;SDS011;4037;47.980;10.172;2023-07-29T16:40:36;3.50;;;2.33;;
7983;SDS011;4037;47.980;10.172;2023-07-29T16:43:02;2.13;;;1.80;;
7983;SDS011;4037;47.980;10.172;2023-07-29T16:45:28;2.43;;;1.70;;
7983;SDS011;4037;47.980;10.172;2023-07-29T16:47:55;3.00;;;1.93;;
7983;SDS011;4037;47.980;10.172;2023-07-29T16:50:21;2.70;;;1.83;;
7983;SDS011;4037;47.980;10.172;2023-07-29T16:52:47;3.43;;;1.90;;
7983;SDS011;4037;47.980;10.172;2023-07-29T16:55:22;2.77;;;2.10;;
7983;SDS011;4037;47.980;10.172;2023-07-29T16:57:48;2.07;;;1.87;;
7983;SDS011;4037;47.980;10.172;2023-07-29T17:00:14;1.90;;;1.70;;
7983;SDS011;4037;47.980;10.172;2023-07-29T17:02:40;2.17;;;1.60;;
7983;SDS011;4037;47.980;10.172;2023-07-29T17:05:06;2.23;;;1.77;;
7983;SDS011;4037;47.980;10.172;2023-07-29T17:07:33;3.87;;;2.20;;
7983;SDS011;4037;47.980;10.172;2023-07-29T17:09:59;2.43;;;1.87;;
7983;SDS011;4037;47.980;10.172;2023-07-29T17:12:25;3.07;;;2.00;;
7983;SDS011;4037;47.980;10.172;2023-07-29T17:14:51;3.17;;;2.07;;
7983;SDS011;4037;47.980;10.172;2023-07-29T17:17:17;2.80;;;2.00;;
7983;SDS011;4037;47.980;10.172;2023-07-29T17:19:43;3.43;;;1.83;;
7983;SDS011;4037;47.980;10.172;2023-07-29T17:22:09;2.30;;;1.70;;
7983;SDS011;4037;47.980;10.172;2023-07-29T17:24:35;2.43;;;1.90;;
7983;SDS011;4037;47.980;10.172;2023-07-29T17:27:01;2.40;;;1.80;;
7983;SDS011;4037;47.980;10.172;2023-07-29T17:29:28;1.50;;;1.37;;
7983;SDS011;4037;47.980;10.172;2023-07-29T17:31:53;2.37;;;1.93;;
7983;SDS011;4037;47.980;10.172;2023-07-29T17:34:19;3.43;;;2.10;;
7983;SDS011;4037;47.980;10.172;2023-07-29T17:36:47;2.30;;;1.90;;
7983;SDS011;4037;47.980;10.172;2023-07-29T17:39:13;1.97;;;1.43;;
7983;SDS011;4037;47.980;10.172;2023-07-29T17:41:39;2.47;;;1.97;;
7983;SDS011;4037;47.980;10.172;2023-07-29T17:44:04;2.80;;;1.73;;
7983;SDS011;4037;47.980;10.172;2023-07-29T17:46:30;2.67;;;1.83;;
7983;SDS011;4037;47.980;10.172;2023-07-29T17:48:58;3.80;;;2.37;;
7983;SDS011;4037;47.980;10.172;2023-07-29T17:51:24;2.20;;;1.90;;
7983;SDS011;4037;47.980;10.172;2023-07-29T17:53:50;2.03;;;1.77;;
7983;SDS011;4037;47.980;10.172;2023-07-29T17:56:16;2.97;;;2.30;;
7983;SDS011;4037;47.980;10.172;2023-07-29T17:58:42;2.97;;;2.37;;
7983;SDS011;4037;47.980;10.172;2023-07-29T18:01:08;2.40;;;1.87;;
7983;SDS011;4037;47.980;10.172;2023-07-29T18:03:34;2.67;;;2.07;;
7983;SDS011;4037;47.980;10.172;2023-07-29T18:06:00;2.00;;;1.80;;
7983;SDS011;4037;47.980;10.172;2023-07-29T18:08:26;3.50;;;1.80;;
7983;SDS011;4037;47.980;10.172;2023-07-29T18:10:52;2.20;;;1.60;;
7983;SDS011;4037;47.980;10.172;2023-07-29T18:13:21;3.10;;;2.20;;
7983;SDS011;4037;47.980;10.172;2023-07-29T18:15:49;2.43;;;2.23;;
7983;SDS011;4037;47.980;10.172;2023-07-29T18:18:16;3.00;;;1.93;;
7983;SDS011;4037;47.980;10.172;2023-07-29T18:20:42;3.10;;;2.00;;
7983;SDS011;4037;47.980;10.172;2023-07-29T18:23:09;2.37;;;2.17;;
7983;SDS011;4037;47.980;10.172;2023-07-29T18:25:35;2.70;;;1.83;;
7983;SDS011;4037;47.980;10.172;2023-07-29T18:28:01;3.07;;;2.20;;
7983;SDS011;4037;47.980;10.172;2023-07-29T18:30:27;2.30;;;2.00;;
7983;SDS011;4037;47.980;10.172;2023-07-29T18:32:53;5.10;;;2.27;;
7983;SDS011;4037;47.980;10.172;2023-07-29T18:35:19;2.03;;;1.50;;
7983;SDS011;4037;47.980;10.172;2023-07-29T18:37:46;3.50;;;2.20;;
7983;SDS011;4037;47.980;10.172;2023-07-29T18:40:12;3.23;;;2.10;;
7983;SDS011;4037;47.980;10.172;2023-07-29T18:42:39;3.87;;;2.13;;
7983;SDS011;4037;47.980;10.172;2023-07-29T18:45:06;2.83;;;2.00;;
7983;SDS011;4037;47.980;10.172;2023-07-29T18:47:32;3.63;;;2.30;;
7983;SDS011;4037;47.980;10.172;2023-07-29T18:49:58;3.63;;;2.73;;
7983;SDS011;4037;47.980;10.172;2023-07-29T18:52:24;3.50;;;2.20;;
7983;SDS011;4037;47.980;10.172;2023-07-29T18:54:50;2.47;;;2.20;;
7983;SDS011;4037;47.980;10.172;2023-07-29T18:57:16;4.57;;;2.27;;
7983;SDS011;4037;47.980;10.172;2023-07-29T18:59:43;3.67;;;2.20;;
7983;SDS011;4037;47.980;10.172;2023-07-29T19:02:09;2.47;;;2.20;;
7983;SDS011;4037;47.980;10.172;2023-07-29T19:04:35;3.77;;;2.27;;
7983;SDS011;4037;47.980;10.172;2023-07-29T19:07:01;2.97;;;2.00;;
7983;SDS011;4037;47.980;10.172;2023-07-29T19:09:27;3.07;;;1.90;;
7983;SDS011;4037;47.980;10.172;2023-07-29T19:11:53;4.37;;;2.30;;
7983;SDS011;4037;47.980;10.172;2023-07-29T19:14:20;3.13;;;2.00;;
7983;SDS011;4037;47.980;10.172;2023-07-29T19:16:46;2.80;;;1.87;;
7983;SDS011;4037;47.980;10.172;2023-07-29T19:19:12;2.23;;;1.70;;
7983;SDS011;4037;47.980;10.172;2023-07-29T19:21:39;2.50;;;1.97;;
7983;SDS011;4037;47.980;10.172;2023-07-29T19:24:05;2.63;;;2.03;;
7983;SDS011;4037;47.980;10.172;2023-07-29T19:26:31;3.67;;;1.90;;
7983;SDS011;4037;47.980;10.172;2023-07-29T19:28:57;2.00;;;1.80;;
7983;SDS011;4037;47.980;10.172;2023-07-29T19:31:23;3.47;;;2.07;;
7983;SDS011;4037;47.980;10.172;2023-07-29T19:33:49;2.50;;;1.93;;
7983;SDS011;4037;47.980;10.172;2023-07-29T19:36:17;2.73;;;2.10;;
7983;SDS011;4037;47.980;10.172;2023-07-29T19:38:43;3.00;;;1.70;;
7983;SDS011;4037;47.980;10.172;2023-07-29T19:41:09;2.40;;;1.93;;
7983;SDS011;4037;47.980;10.172;2023-07-29T19:43:35;2.87;;;1.93;;
7983;SDS011;4037;47.980;10.172;2023-07-29T19:46:01;2.90;;;1.83;;
7983;SDS011;4037;47.980;10.172;2023-07-29T19:48:28;3.07;;;2.20;;
7983;SDS011;4037;47.980;10.172;2023-07-29T19:50:54;2.30;;;1.80;;
7983;SDS011;4037;47.980;10.172;2023-07-29T19:53:21;2.77;;;1.60;;
7983;SDS011;4037;47.980;10.172;2023-07-29T19:55:47;1.90;;;1.70;;
7983;SDS011;4037;47.980;10.172;2023-07-29T19:58:16;2.43;;;1.73;;
7983;SDS011;4037;47.980;10.172;2023-07-29T20:00:48;2.23;;;1.67;;
7983;SDS011;4037;47.980;10.172;2023-07-29T20:03:15;2.27;;;1.63;;
7983;SDS011;4037;47.980;10.172;2023-07-29T20:05:41;2.27;;;1.70;;
7983;SDS011;4037;47.980;10.172;2023-07-29T20:08:07;1.70;;;1.43;;
7983;SDS011;4037;47.980;10.172;2023-07-29T20:10:33;1.73;;;1.63;;
7983;SDS011;4037;47.980;10.172;2023-07-29T20:12:59;2.77;;;2.07;;
7983;SDS011;4037;47.980;10.172;2023-07-29T20:15:25;2.20;;;1.60;;
7983;SDS011;4037;47.980;10.172;2023-07-29T20:17:51;2.90;;;1.97;;
7983;SDS011;4037;47.980;10.172;2023-07-29T20:20:17;2.23;;;1.43;;
7983;SDS011;4037;47.980;10.172;2023-07-29T20:22:43;3.27;;;1.60;;
7983;SDS011;4037;47.980;10.172;2023-07-29T20:25:09;2.60;;;1.87;;
7983;SDS011;4037;47.980;10.172;2023-07-29T20:27:36;2.07;;;1.57;;
7983;SDS011;4037;47.980;10.172;2023-07-29T20:30:02;1.73;;;1.50;;
7983;SDS011;4037;47.980;10.172;2023-07-29T20:32:28;1.80;;;1.33;;
7983;SDS011;4037;47.980;10.172;2023-07-29T20:34:55;2.13;;;1.70;;
7983;SDS011;4037;47.980;10.172;2023-07-29T20:37:21;1.93;;;1.60;;
7983;SDS011;4037;47.980;10.172;2023-07-29T20:39:47;2.53;;;1.80;;
7983;SDS011;4037;47.980;10.172;2023-07-29T20:42:12;2.07;;;1.37;;
7983;SDS011;4037;47.980;10.172;2023-07-29T20:44:38;2.07;;;1.60;;
7983;SDS011;4037;47.980;10.172;2023-07-29T20:47:05;1.80;;;1.47;;
7983;SDS011;4037;47.980;10.172;2023-07-29T20:49:31;2.53;;;1.57;;
7983;SDS011;4037;47.980;10.172;2023-07-29T20:51:57;3.00;;;1.70;;
7983;SDS011;4037;47.980;10.172;2023-07-29T20:54:23;2.10;;;1.90;;
7983;SDS011;4037;47.980;10.172;2023-07-29T20:56:49;2.13;;;1.63;;
7983;SDS011;4037;47.980;10.172;2023-07-29T20:59:15;2.17;;;1.50;;
7983;SDS011;4037;47.980;10.172;2023-07-29T21:01:41;3.13;;;1.60;;
7983;SDS011;4037;47.980;10.172;2023-07-29T21:04:07;4.03;;;1.80;;
7983;SDS011;4037;47.980;10.172;2023-07-29T21:06:34;3.33;;;1.87;;
7983;SDS011;4037;47.980;10.172;2023-07-29T21:09:01;2.00;;;1.50;;
7983;SDS011;4037;47.980;10.172;2023-07-29T21:11:29;2.67;;;1.80;;
7983;SDS011;4037;47.980;10.172;2023-07-29T21:13:54;2.63;;;1.70;;
7983;SDS011;4037;47.980;10.172;2023-07-29T21:16:20;1.83;;;1.70;;
7983;SDS011;4037;47.980;10.172;2023-07-29T21:18:47;2.23;;;1.60;;
7983;SDS011;4037;47.980;10.172;2023-07-29T21:21:13;2.63;;;1.60;;
7983;SDS011;4037;47.980;10.172;2023-07-29T21:23:39;2.07;;;1.60;;
7983;SDS011;4037;47.980;10.172;2023-07-29T21:26:05;3.40;;;1.97;;
7983;SDS011;4037;47.980;10.172;2023-07-29T21:28:31;2.27;;;1.80;;
7983;SDS011;4037;47.980;10.172;2023-07-29T21:30:57;2.57;;;1.90;;
7983;SDS011;4037;47.980;10.172;2023-07-29T21:33:23;2.13;;;1.70;;
7983;SDS011;4037;47.980;10.172;2023-07-29T21:35:51;1.90;;;1.57;;
7983;SDS011;4037;47.980;10.172;2023-07-29T21:38:17;1.80;;;1.50;;
7983;SDS011;4037;47.980;10.172;2023-07-29T21:40:47;2.97;;;1.33;;
7983;SDS011;4037;47.980;10.172;2023-07-29T21:43:13;2.23;;;1.30;;
7983;SDS011;4037;47.980;10.172;2023-07-29T21:45:39;1.67;;;1.40;;
7983;SDS011;4037;47.980;10.172;2023-07-29T21:48:05;1.70;;;1.47;;
7983;SDS011;4037;47.980;10.172;2023-07-29T21:50:31;1.73;;;1.20;;
7983;SDS011;4037;47.980;10.172;2023-07-29T21:52:57;2.30;;;1.50;;
7983;SDS011;4037;47.980;10.172;2023-07-29T21:55:23;1.70;;;1.20;;
7983;SDS011;4037;47.980;10.172;2023-07-29T21:57:49;2.63;;;1.40;;
7983;SDS011;4037;47.980;10.172;2023-07-29T22:00:15;1.57;;;1.23;;
7983;SDS011;4037;47.980;10.172;2023-07-29T22:02:41;2.27;;;1.43;;
7983;SDS011;4037;47.980;10.172;2023-07-29T22:05:07;1.57;;;1.30;;
7983;SDS011;4037;47.980;10.172;2023-07-29T22:07:33;2.10;;;1.50;;
7983;SDS011;4037;47.980;10.172;2023-07-29T22:10:00;1.40;;;1.20;;
7983;SDS011;4037;47.980;10.172;2023-07-29T22:12:25;1.87;;;1.30;;
7983;SDS011;4037;47.980;10.172;2023-07-29T22:14:59;1.77;;;1.60;;
7983;SDS011;4037;47.980;10.172;2023-07-29T22:17:25;1.63;;;1.20;;
7983;SDS011;4037;47.980;10.172;2023-07-29T22:19:52;4.40;;;1.50;;
7983;SDS011;4037;47.980;10.172;2023-07-29T22:22:18;1.70;;;1.33;;
7983;SDS011;4037;47.980;10.172;2023-07-29T22:24:44;1.83;;;1.53;;
7983;SDS011;4037;47.980;10.172;2023-07-29T22:27:10;1.93;;;1.40;;
7983;SDS011;4037;47.980;10.172;2023-07-29T22:29:36;2.27;;;1.40;;
7983;SDS011;4037;47.980;10.172;2023-07-29T22:32:05;1.77;;;1.50;;
7983;SDS011;4037;47.980;10.172;2023-07-29T22:34:31;3.73;;;1.90;;
7983;SDS011;4037;47.980;10.172;2023-07-29T22:36:57;1.90;;;1.47;;
7983;SDS011;4037;47.980;10.172;2023-07-29T22:39:24;1.50;;;1.30;;
7983;SDS011;4037;47.980;10.172;2023-07-29T22:41:50;1.97;;;1.60;;
7983;SDS011;4037;47.980;10.172;2023-07-29T22:44:16;2.27;;;1.90;;
7983;SDS011;4037;47.980;10.172;2023-07-29T22:46:45;2.90;;;1.50;;
7983;SDS011;4037;47.980;10.172;2023-07-29T22:49:11;1.90;;;1.30;;
7983;SDS011;4037;47.980;10.172;2023-07-29T22:51:37;1.73;;;1.50;;
7983;SDS011;4037;47.980;10.172;2023-07-29T22:54:03;2.03;;;1.67;;
7983;SDS011;4037;47.980;10.172;2023-07-29T22:56:29;2.40;;;1.57;;